createdAt,value
2018-02-13T00:01:30.509Z,6.47
2018-02-13T00:03:57.959Z,6.57
2018-02-13T00:06:25.452Z,6.27
2018-02-13T00:08:52.897Z,6.37
2018-02-13T00:11:20.414Z,6.10
2018-02-13T00:13:47.867Z,6.60
2018-02-13T00:16:15.325Z,6.30
2018-02-13T00:18:43.096Z,6.97
2018-02-13T00:21:10.851Z,7.33
2018-02-13T00:23:38.307Z,6.53
2018-02-13T00:26:06.232Z,6.07
2018-02-13T00:28:33.712Z,6.60
2018-02-13T00:31:01.166Z,6.40
2018-02-13T00:33:28.682Z,6.43
2018-02-13T00:35:56.166Z,8.23
2018-02-13T00:38:23.651Z,7.87
2018-02-13T00:40:51.141Z,7.13
2018-02-13T00:43:18.869Z,7.37
2018-02-13T00:45:46.333Z,7.60
2018-02-13T00:48:14.098Z,8.60
2018-02-13T00:50:41.565Z,8.20
2018-02-13T00:53:09.201Z,8.40
2018-02-13T00:55:36.779Z,8.20
2018-02-13T00:58:04.242Z,6.97
2018-02-13T01:00:31.697Z,6.80
2018-02-13T01:02:59.449Z,6.70
2018-02-13T01:05:27.213Z,7.53
2018-02-13T01:07:54.773Z,7.53
2018-02-13T01:10:22.225Z,7.93
2018-02-13T01:12:49.889Z,7.30
2018-02-13T01:15:17.358Z,7.13
2018-02-13T01:17:44.813Z,6.97
2018-02-13T01:20:12.457Z,6.67
2018-02-13T01:22:39.901Z,7.53
2018-02-13T01:25:07.493Z,7.60
2018-02-13T01:27:35.098Z,7.53
2018-02-13T01:30:02.566Z,7.10
2018-02-13T01:32:30.098Z,7.40
2018-02-13T01:34:57.565Z,7.53
2018-02-13T01:37:25.075Z,6.70
2018-02-13T01:39:52.541Z,6.50
2018-02-13T01:42:20.184Z,6.47
2018-02-13T01:44:47.690Z,6.90
2018-02-13T01:47:15.139Z,6.33
2018-02-13T01:49:42.601Z,7.03
2018-02-13T01:52:10.058Z,6.93
2018-02-13T01:54:37.572Z,6.93
2018-02-13T01:57:05.021Z,8.10
2018-02-13T01:59:32.465Z,6.90
2018-02-13T02:01:59.921Z,6.80
2018-02-13T02:04:27.589Z,8.10
2018-02-13T02:06:55.046Z,7.20
2018-02-13T02:09:22.497Z,7.47
2018-02-13T02:11:50.078Z,8.00
2018-02-13T02:14:17.849Z,7.97
2018-02-13T02:16:45.307Z,7.30
2018-02-13T02:19:12.865Z,7.70
2018-02-13T02:21:40.529Z,7.80
2018-02-13T02:24:08.190Z,9.07
2018-02-13T02:26:35.653Z,8.23
2018-02-13T02:29:03.105Z,8.47
2018-02-13T02:31:30.582Z,11.00
2018-02-13T02:33:58.042Z,10.23
2018-02-13T02:36:25.515Z,11.37
2018-02-13T02:38:52.976Z,11.00
2018-02-13T02:41:20.443Z,10.60
2018-02-13T02:43:47.899Z,8.90
2018-02-13T02:46:15.394Z,8.77
2018-02-13T02:48:43.152Z,7.70
2018-02-13T02:51:10.909Z,7.50
2018-02-13T02:53:38.386Z,7.83
2018-02-13T02:56:06.303Z,7.10
2018-02-13T02:58:33.779Z,7.50
2018-02-13T03:01:01.231Z,7.70
2018-02-13T03:03:28.691Z,7.63
2018-02-13T03:05:56.173Z,7.77
2018-02-13T03:08:23.721Z,7.57
2018-02-13T03:10:51.211Z,7.07
2018-02-13T03:13:18.945Z,7.83
2018-02-13T03:15:46.430Z,7.10
2018-02-13T03:18:14.172Z,7.13
2018-02-13T03:20:41.809Z,7.60
2018-02-13T03:23:09.273Z,8.30
2018-02-13T03:25:36.786Z,8.03
2018-02-13T03:28:04.304Z,7.43
2018-02-13T03:30:33.278Z,7.03
2018-02-13T03:33:00.753Z,6.83
2018-02-13T03:35:28.332Z,6.97
2018-02-13T03:37:56.585Z,7.63
2018-02-13T03:40:24.234Z,7.30
2018-02-13T03:42:51.690Z,7.77
2018-02-13T03:45:19.146Z,7.33
2018-02-13T03:47:46.613Z,7.27
2018-02-13T03:50:14.077Z,7.83
2018-02-13T03:52:41.533Z,7.87
2018-02-13T03:55:09.004Z,7.57
2018-02-13T03:57:36.458Z,7.23
2018-02-13T04:00:03.926Z,7.63
2018-02-13T04:02:31.453Z,7.67
2018-02-13T04:04:58.912Z,7.70
2018-02-13T04:07:26.357Z,7.70
2018-02-13T04:09:54.033Z,8.03
2018-02-13T04:12:21.593Z,7.70
2018-02-13T04:14:49.357Z,6.97
2018-02-13T04:17:17.122Z,9.17
2018-02-13T04:19:44.905Z,8.57
2018-02-13T04:22:12.573Z,8.97
2018-02-13T04:24:40.102Z,9.03
2018-02-13T04:27:07.602Z,8.30
2018-02-13T04:29:35.109Z,8.20
2018-02-13T04:32:02.565Z,8.33
2018-02-13T04:34:30.245Z,7.60
2018-02-13T04:36:58.006Z,7.03
2018-02-13T04:39:25.553Z,7.47
2018-02-13T04:41:53.217Z,8.10
2018-02-13T04:44:20.985Z,8.00
2018-02-13T04:46:48.440Z,8.73
2018-02-13T04:49:16.204Z,8.23
2018-02-13T04:51:43.790Z,8.80
2018-02-13T04:54:12.007Z,8.47
2018-02-13T04:56:39.491Z,8.77
2018-02-13T04:59:07.457Z,8.70
2018-02-13T05:01:34.877Z,9.63
2018-02-13T05:04:03.402Z,8.17
2018-02-13T05:06:31.161Z,8.33
2018-02-13T05:08:58.814Z,8.10
2018-02-13T05:11:26.264Z,7.80
2018-02-13T05:13:53.769Z,8.20
2018-02-13T05:16:21.298Z,8.60
2018-02-13T05:18:49.062Z,8.60
2018-02-13T05:21:16.510Z,7.90
2018-02-13T05:23:43.973Z,8.07
2018-02-13T05:26:11.425Z,8.17
2018-02-13T05:28:38.939Z,8.33
2018-02-13T05:31:06.346Z,8.13
2018-02-13T05:33:34.111Z,8.97
2018-02-13T05:36:01.733Z,8.57
2018-02-13T05:38:29.271Z,8.97
2018-02-13T05:40:56.722Z,9.03
2018-02-13T05:43:24.252Z,8.23
2018-02-13T05:45:51.908Z,8.20
2018-02-13T05:48:20.257Z,9.03
2018-02-13T05:50:47.749Z,8.57
2018-02-13T05:53:15.199Z,8.10
2018-02-13T05:55:42.669Z,8.50
2018-02-13T05:58:10.121Z,8.70
2018-02-13T06:00:37.718Z,8.53
2018-02-13T06:03:05.300Z,9.73
2018-02-13T06:05:32.766Z,8.60
2018-02-13T06:08:00.214Z,8.50
2018-02-13T06:10:27.711Z,8.70
2018-02-13T06:12:55.254Z,9.40
2018-02-13T06:15:23.026Z,9.13
2018-02-13T06:17:50.834Z,9.30
2018-02-13T06:20:18.438Z,9.27
2018-02-13T06:22:45.889Z,9.17
2018-02-13T06:25:13.373Z,9.80
2018-02-13T06:27:40.829Z,9.43
2018-02-13T06:30:08.386Z,9.90
2018-02-13T06:32:35.965Z,9.10
2018-02-13T06:35:04.194Z,9.67
2018-02-13T06:37:31.858Z,9.80
2018-02-13T06:39:59.444Z,9.80
2018-02-13T06:42:26.898Z,10.07
2018-02-13T06:44:54.662Z,10.50
2018-02-13T06:47:22.109Z,10.43
2018-02-13T06:49:49.876Z,10.80
2018-02-13T06:52:17.338Z,10.23
2018-02-13T06:54:45.098Z,10.07
2018-02-13T06:57:12.847Z,9.43
2018-02-13T06:59:40.485Z,10.30
2018-02-13T07:02:08.073Z,10.50
2018-02-13T07:04:35.526Z,10.07
2018-02-13T07:07:02.998Z,10.03
2018-02-13T07:09:30.515Z,10.10
2018-02-13T07:11:58.240Z,9.87
2018-02-13T07:14:25.878Z,10.30
2018-02-13T07:16:53.392Z,11.47
2018-02-13T07:19:20.848Z,10.93
2018-02-13T07:21:48.356Z,10.10
2018-02-13T07:24:15.813Z,10.87
2018-02-13T07:26:43.463Z,9.93
2018-02-13T07:29:10.911Z,10.70
2018-02-13T07:31:38.519Z,9.77
2018-02-13T07:34:06.247Z,10.23
2018-02-13T07:36:33.838Z,10.93
2018-02-13T07:39:01.290Z,9.57
2018-02-13T07:41:29.566Z,9.17
2018-02-13T07:43:57.021Z,9.70
2018-02-13T07:46:25.365Z,9.70
2018-02-13T07:48:52.838Z,10.00
2018-02-13T07:51:20.300Z,9.90
2018-02-13T07:53:47.798Z,9.63
2018-02-13T07:56:15.406Z,9.63
2018-02-13T07:58:42.876Z,10.43
2018-02-13T08:01:10.366Z,9.90
2018-02-13T08:03:37.869Z,10.43
2018-02-13T08:06:05.629Z,10.03
2018-02-13T08:08:33.094Z,10.70
2018-02-13T08:11:00.858Z,10.33
2018-02-13T08:13:28.498Z,10.20
2018-02-13T08:15:55.998Z,9.70
2018-02-13T08:18:23.459Z,9.97
2018-02-13T08:20:50.921Z,9.83
2018-02-13T08:23:18.391Z,9.93
2018-02-13T08:25:45.858Z,9.87
2018-02-13T08:28:13.316Z,10.00
2018-02-13T08:30:40.821Z,8.63
2018-02-13T08:33:08.486Z,8.17
2018-02-13T08:35:35.949Z,8.70
2018-02-13T08:38:03.486Z,7.63
2018-02-13T08:40:30.961Z,7.53
2018-02-13T08:42:58.428Z,7.40
2018-02-13T08:45:25.910Z,7.20
2018-02-13T08:47:53.618Z,7.83
2018-02-13T08:50:21.125Z,7.30
2018-02-13T08:52:48.870Z,7.63
2018-02-13T08:55:16.607Z,6.30
2018-02-13T08:57:44.082Z,6.20
2018-02-13T09:00:11.539Z,6.53
2018-02-13T09:02:38.989Z,7.60
2018-02-13T09:05:06.446Z,6.00
2018-02-13T09:07:33.889Z,6.70
2018-02-13T09:10:01.381Z,7.30
2018-02-13T09:15:03.791Z,6.00
2018-02-13T09:17:31.265Z,5.90
2018-02-13T09:19:58.864Z,6.87
2018-02-13T09:22:26.475Z,5.80
2018-02-13T09:24:54.010Z,5.30
2018-02-13T09:27:21.477Z,5.03
2018-02-13T09:29:48.993Z,4.77
2018-02-13T09:32:16.650Z,5.53
2018-02-13T09:34:44.121Z,4.90
2018-02-13T09:37:11.683Z,5.30
2018-02-13T09:39:39.291Z,5.00
2018-02-13T09:42:06.794Z,5.17
2018-02-13T09:44:34.344Z,5.67
2018-02-13T09:47:01.793Z,6.23
2018-02-13T09:49:29.320Z,6.67
2018-02-13T09:51:56.779Z,5.93
2018-02-13T09:54:24.452Z,5.70
2018-02-13T09:56:51.931Z,8.00
2018-02-13T09:59:19.383Z,5.50
2018-02-13T10:01:46.849Z,5.53
2018-02-13T10:04:14.307Z,6.10
2018-02-13T10:06:41.760Z,6.83
2018-02-13T10:09:09.223Z,6.90
2018-02-13T10:11:36.685Z,6.93
2018-02-13T10:14:04.145Z,7.07
2018-02-13T10:16:31.597Z,7.23
2018-02-13T10:18:59.069Z,6.60
2018-02-13T10:21:26.522Z,7.03
2018-02-13T10:23:53.983Z,6.37
2018-02-13T10:26:21.428Z,5.77
2018-02-13T10:28:48.885Z,6.27
2018-02-13T10:31:16.332Z,6.40
2018-02-13T10:33:43.785Z,6.37
2018-02-13T10:36:11.242Z,5.77
2018-02-13T10:38:38.716Z,6.37
2018-02-13T10:41:06.174Z,5.83
2018-02-13T10:43:33.637Z,5.13
2018-02-13T10:46:01.090Z,5.60
2018-02-13T10:48:28.549Z,5.13
2018-02-13T10:50:56.287Z,5.17
2018-02-13T10:53:23.793Z,5.03
2018-02-13T10:55:51.230Z,4.90
2018-02-13T10:58:18.894Z,4.17
2018-02-13T11:00:52.058Z,3.17
2018-02-13T11:03:19.521Z,3.17
2018-02-13T11:05:47.742Z,2.40
2018-02-13T11:08:15.194Z,2.17
2018-02-13T11:10:42.663Z,1.90
2018-02-13T11:13:10.111Z,1.90
2018-02-13T11:15:37.574Z,1.53
2018-02-13T11:18:05.017Z,1.83
2018-02-13T11:20:32.472Z,1.67
2018-02-13T11:22:59.929Z,1.70
2018-02-13T11:25:27.393Z,2.40
2018-02-13T11:27:54.849Z,1.90
2018-02-13T11:30:22.319Z,2.00
2018-02-13T11:32:49.799Z,2.70
2018-02-13T11:35:17.231Z,5.47
2018-02-13T11:37:44.685Z,1.70
2018-02-13T11:40:12.145Z,1.83
2018-02-13T11:42:39.600Z,1.77
2018-02-13T11:45:07.060Z,1.80
2018-02-13T11:47:35.458Z,1.90
2018-02-13T11:50:02.907Z,2.27
2018-02-13T11:52:30.369Z,1.40
2018-02-13T11:54:57.817Z,1.70
2018-02-13T11:57:25.275Z,1.67
2018-02-13T11:59:52.725Z,1.87
2018-02-13T12:02:20.793Z,1.73
2018-02-13T12:04:49.019Z,1.67
2018-02-13T12:07:17.247Z,1.77
2018-02-13T12:09:44.709Z,2.60
2018-02-13T12:12:12.149Z,2.30
2018-02-13T12:14:39.605Z,2.30
2018-02-13T12:17:07.079Z,2.63
2018-02-13T12:19:34.516Z,2.60
2018-02-13T12:22:02.005Z,3.37
2018-02-13T12:24:29.458Z,2.53
2018-02-13T12:26:56.904Z,2.30
2018-02-13T12:29:24.365Z,2.63
2018-02-13T12:31:52.782Z,2.70
2018-02-13T12:34:20.513Z,3.10
2018-02-13T12:36:47.972Z,2.57
2018-02-13T12:39:15.433Z,2.73
2018-02-13T12:41:42.897Z,3.30
2018-02-13T12:44:10.646Z,2.53
2018-02-13T12:46:38.979Z,3.00
2018-02-13T12:49:06.447Z,2.80
2018-02-13T12:51:33.901Z,4.50
2018-02-13T12:54:01.361Z,2.10
2018-02-13T12:56:28.837Z,2.50
2018-02-13T12:58:56.302Z,2.30
2018-02-13T13:01:23.745Z,2.57
2018-02-13T13:03:51.202Z,2.23
2018-02-13T13:06:18.663Z,2.03
2018-02-13T13:08:46.117Z,2.53
2018-02-13T13:11:13.585Z,2.80
2018-02-13T13:13:41.034Z,2.67
2018-02-13T13:16:08.490Z,2.90
2018-02-13T13:18:35.945Z,2.50
2018-02-13T13:21:03.428Z,2.47
2018-02-13T13:23:30.865Z,2.80
2018-02-13T13:25:58.329Z,2.63
2018-02-13T13:28:25.802Z,2.77
2018-02-13T13:30:53.262Z,2.90
2018-02-13T13:33:20.714Z,2.70
2018-02-13T13:35:48.464Z,3.30
2018-02-13T13:38:16.229Z,2.50
2018-02-13T13:40:43.692Z,2.70
2018-02-13T13:43:11.143Z,2.43
2018-02-13T13:45:38.597Z,2.90
2018-02-13T13:48:06.045Z,2.20
2018-02-13T13:50:33.501Z,2.47
2018-02-13T13:53:00.961Z,2.40
2018-02-13T13:55:28.429Z,2.53
2018-02-13T13:57:56.049Z,2.83
2018-02-13T14:00:23.561Z,2.13
2018-02-13T14:02:51.013Z,2.23
2018-02-13T14:05:19.327Z,2.13
2018-02-13T14:07:46.873Z,2.60
2018-02-13T14:10:15.905Z,2.67
2018-02-13T14:12:43.366Z,2.73
2018-02-13T14:15:10.830Z,2.60
2018-02-13T14:17:38.317Z,2.73
2018-02-13T14:20:05.758Z,2.80
2018-02-13T14:22:33.234Z,3.03
2018-02-13T14:25:00.831Z,3.13
2018-02-13T14:27:28.353Z,3.00
2018-02-13T14:29:55.894Z,2.50
2018-02-13T14:32:23.565Z,3.30
2018-02-13T14:34:51.027Z,2.97
2018-02-13T14:37:19.494Z,2.90
2018-02-13T14:39:46.958Z,3.40
2018-02-13T14:42:14.424Z,3.00
2018-02-13T14:44:42.781Z,2.67
2018-02-13T14:47:10.464Z,3.07
2018-02-13T14:49:37.927Z,3.27
2018-02-13T14:52:05.378Z,3.60
2018-02-13T14:54:32.821Z,2.90
2018-02-13T14:57:00.274Z,3.47
2018-02-13T14:59:27.730Z,3.10
2018-02-13T15:01:55.185Z,3.47
2018-02-13T15:04:22.647Z,3.20
2018-02-13T15:06:50.114Z,3.00
2018-02-13T15:09:17.569Z,3.10
2018-02-13T15:11:45.018Z,3.10
2018-02-13T15:14:12.493Z,3.03
2018-02-13T15:16:42.511Z,3.10
2018-02-13T15:19:10.137Z,3.63
2018-02-13T15:21:37.614Z,3.03
2018-02-13T15:24:05.070Z,3.27
2018-02-13T15:26:32.526Z,3.10
2018-02-13T15:28:59.982Z,3.70
2018-02-13T15:31:27.436Z,3.67
2018-02-13T15:33:54.913Z,3.60
2018-02-13T15:36:22.353Z,3.73
2018-02-13T15:38:49.823Z,3.67
2018-02-13T15:41:17.357Z,4.33
2018-02-13T15:43:45.118Z,3.50
2018-02-13T15:46:12.815Z,4.47
2018-02-13T15:48:40.267Z,3.50
2018-02-13T15:51:07.718Z,3.77
2018-02-13T15:53:35.187Z,3.20
2018-02-13T15:56:02.698Z,3.43
2018-02-13T15:58:30.161Z,3.33
2018-02-13T16:00:57.692Z,3.80
2018-02-13T16:03:25.298Z,3.40
2018-02-13T16:05:52.757Z,3.70
2018-02-13T16:08:20.213Z,3.87
2018-02-13T16:10:47.689Z,3.90
2018-02-13T16:13:15.213Z,3.93
2018-02-13T16:15:42.683Z,4.03
2018-02-13T16:18:10.434Z,3.77
2018-02-13T16:20:37.952Z,3.70
2018-02-13T16:23:05.499Z,3.97
2018-02-13T16:25:32.979Z,3.77
2018-02-13T16:28:00.434Z,4.10
2018-02-13T16:30:27.885Z,4.60
2018-02-13T16:32:55.335Z,4.13
2018-02-13T16:35:22.838Z,4.10
2018-02-13T16:37:50.298Z,4.30
2018-02-13T16:40:17.742Z,4.50
2018-02-13T16:42:45.197Z,5.20
2018-02-13T16:45:12.774Z,4.30
2018-02-13T16:47:40.226Z,4.03
2018-02-13T16:50:07.697Z,4.40
2018-02-13T16:52:35.226Z,4.37
2018-02-13T16:55:02.681Z,4.40
2018-02-13T16:57:30.137Z,4.47
2018-02-13T16:59:57.597Z,4.60
2018-02-13T17:02:25.059Z,4.63
2018-02-13T17:04:52.509Z,4.70
2018-02-13T17:07:19.974Z,4.83
2018-02-13T17:09:47.421Z,5.20
2018-02-13T17:12:14.886Z,4.60
2018-02-13T17:14:42.333Z,5.43
2018-02-13T17:17:09.795Z,5.40
2018-02-13T17:19:37.375Z,5.97
2018-02-13T17:22:04.789Z,5.90
2018-02-13T17:24:32.240Z,6.07
2018-02-13T17:26:59.762Z,6.80
2018-02-13T17:29:27.213Z,6.37
2018-02-13T17:31:54.670Z,6.63
2018-02-13T17:34:22.164Z,6.23
2018-02-13T17:36:49.600Z,5.43
2018-02-13T17:39:17.830Z,5.73
2018-02-13T17:41:45.288Z,5.40
2018-02-13T17:44:12.750Z,5.27
2018-02-13T17:46:40.197Z,5.40
2018-02-13T17:49:07.772Z,6.23
2018-02-13T17:51:35.180Z,6.40
2018-02-13T17:54:02.635Z,5.63
2018-02-13T17:56:30.078Z,6.13
2018-02-13T17:58:57.564Z,6.33
2018-02-13T18:01:25.006Z,6.50
2018-02-13T18:03:52.505Z,6.53
2018-02-13T18:06:19.950Z,6.80
2018-02-13T18:08:47.456Z,6.90
2018-02-13T18:11:14.909Z,7.83
2018-02-13T18:13:42.366Z,7.73
2018-02-13T18:16:09.856Z,7.13
2018-02-13T18:18:37.357Z,7.63
2018-02-13T18:21:04.814Z,6.77
2018-02-13T18:23:32.326Z,7.10
2018-02-13T18:25:59.794Z,7.50
2018-02-13T18:28:27.269Z,7.73
2018-02-13T18:30:54.729Z,8.23
2018-02-13T18:33:22.197Z,7.70
2018-02-13T18:35:49.654Z,7.77
2018-02-13T18:38:17.102Z,8.37
2018-02-13T18:40:44.557Z,8.47
2018-02-13T18:43:12.010Z,8.17
2018-02-13T18:45:39.473Z,8.80
2018-02-13T18:48:06.936Z,8.10
2018-02-13T18:50:34.385Z,7.57
2018-02-13T18:55:29.393Z,9.10
2018-02-13T18:57:56.837Z,8.63
2018-02-13T19:00:24.308Z,9.17
2018-02-13T19:02:51.768Z,9.33
2018-02-13T19:05:19.221Z,9.50
2018-02-13T19:07:46.705Z,9.53
2018-02-13T19:10:14.173Z,9.20
2018-02-13T19:12:41.634Z,8.97
2018-02-13T19:15:09.085Z,9.17
2018-02-13T19:17:36.580Z,8.67
2018-02-13T19:20:04.092Z,8.60
2018-02-13T19:22:31.553Z,8.47
2018-02-13T19:24:59.010Z,9.40
2018-02-13T19:27:26.473Z,8.93
2018-02-13T19:29:53.913Z,9.47
2018-02-13T19:32:21.383Z,9.33
2018-02-13T19:34:48.835Z,9.83
2018-02-13T19:37:16.293Z,10.33
2018-02-13T19:39:43.746Z,10.10
2018-02-13T19:42:11.219Z,10.00
2018-02-13T19:44:38.666Z,10.00
2018-02-13T19:47:06.137Z,10.33
2018-02-13T19:49:33.594Z,9.90
2018-02-13T19:52:01.058Z,9.47
2018-02-13T19:54:28.734Z,10.80
2018-02-13T19:56:56.201Z,11.30
2018-02-13T19:59:23.677Z,11.43
2018-02-13T20:01:51.137Z,10.70
2018-02-13T20:04:18.647Z,11.03
2018-02-13T20:06:46.106Z,11.03
2018-02-13T20:09:13.569Z,10.60
2018-02-13T20:11:41.022Z,10.50
2018-02-13T20:14:08.533Z,9.27
2018-02-13T20:16:35.990Z,10.10
2018-02-13T20:19:03.454Z,11.37
2018-02-13T20:21:30.924Z,11.00
2018-02-13T20:23:58.405Z,10.90
2018-02-13T20:26:26.621Z,12.00
2018-02-13T20:28:54.087Z,11.27
2018-02-13T20:31:21.545Z,11.23
2018-02-13T20:33:49.010Z,11.60
2018-02-13T20:36:16.471Z,10.90
2018-02-13T20:38:43.952Z,10.97
2018-02-13T20:41:11.422Z,11.40
2018-02-13T20:43:38.967Z,12.17
2018-02-13T20:46:07.191Z,11.67
2018-02-13T20:48:34.649Z,12.00
2018-02-13T20:51:02.105Z,13.20
2018-02-13T20:53:29.566Z,14.37
2018-02-13T20:55:57.025Z,13.40
2018-02-13T20:58:24.491Z,13.20
2018-02-13T21:00:51.941Z,14.00
2018-02-13T21:03:20.177Z,13.90
2018-02-13T21:05:47.638Z,13.33
2018-02-13T21:08:15.107Z,13.47
2018-02-13T21:10:42.569Z,13.07
2018-02-13T21:13:10.041Z,12.80
2018-02-13T21:15:37.640Z,13.13
2018-02-13T21:18:05.270Z,12.37
2018-02-13T21:20:32.721Z,14.30
2018-02-13T21:23:00.304Z,11.93
2018-02-13T21:25:27.777Z,10.97
2018-02-13T21:27:55.234Z,11.33
2018-02-13T21:30:22.691Z,10.27
2018-02-13T21:32:50.149Z,11.13
2018-02-13T21:35:17.818Z,11.40
2018-02-13T21:37:45.276Z,11.80
2018-02-13T21:40:12.742Z,11.90
2018-02-13T21:42:40.262Z,12.57
2018-02-13T21:45:07.733Z,12.13
2018-02-13T21:47:35.658Z,13.00
2018-02-13T21:50:03.130Z,11.40
2018-02-13T21:52:30.680Z,11.80
2018-02-13T21:54:58.472Z,12.43
2018-02-13T21:57:26.010Z,11.83
2018-02-13T21:59:53.494Z,12.37
2018-02-13T22:02:20.946Z,12.30
2018-02-13T22:04:48.465Z,12.33
2018-02-13T22:07:16.290Z,11.70
2018-02-13T22:09:43.748Z,12.10
2018-02-13T22:12:11.203Z,11.50
2018-02-13T22:14:38.661Z,12.07
2018-02-13T22:17:06.155Z,11.70
2018-02-13T22:19:33.649Z,12.90
2018-02-13T22:22:01.109Z,14.33
2018-02-13T22:24:28.565Z,13.87
2018-02-13T22:26:56.034Z,14.40
2018-02-13T22:29:23.506Z,14.30
2018-02-13T22:31:51.132Z,13.63
2018-02-13T22:34:18.606Z,12.57
2018-02-13T22:36:46.162Z,13.20
2018-02-13T22:39:13.642Z,13.33
2018-02-13T22:41:41.202Z,14.27
2018-02-13T22:44:09.430Z,13.73
2018-02-13T22:46:36.945Z,13.80
2018-02-13T22:49:04.417Z,13.70
2018-02-13T22:51:31.930Z,13.70
2018-02-13T22:53:59.409Z,13.00
2018-02-13T22:56:27.634Z,12.57
2018-02-13T22:58:55.963Z,12.33
2018-02-13T23:01:23.415Z,12.10
2018-02-13T23:03:50.908Z,12.40
2018-02-13T23:06:18.370Z,12.23
2018-02-13T23:08:45.845Z,13.07
2018-02-13T23:11:13.298Z,13.60
2018-02-13T23:13:40.772Z,13.70
2018-02-13T23:16:08.582Z,14.43
2018-02-13T23:18:36.233Z,14.63
2018-02-13T23:21:03.793Z,14.00
2018-02-13T23:23:31.513Z,14.67
2018-02-13T23:25:59.280Z,14.47
2018-02-13T23:28:27.050Z,14.07
2018-02-13T23:30:54.816Z,13.50
2018-02-13T23:33:22.277Z,14.97
2018-02-13T23:35:49.733Z,13.83
2018-02-13T23:38:17.222Z,14.27
2018-02-13T23:40:44.679Z,13.90
2018-02-13T23:43:12.142Z,13.67
2018-02-13T23:45:39.695Z,14.40
2018-02-13T23:48:07.325Z,13.70
2018-02-13T23:50:35.075Z,13.70
2018-02-13T23:53:02.898Z,13.07
2018-02-13T23:55:30.597Z,14.87
2018-02-13T23:57:58.166Z,13.53
